createdAt,value
2023-02-28T00:00:18.494Z,101819.77
2023-02-28T00:03:09.242Z,101819.56
2023-02-28T00:05:40.216Z,101822.82
2023-02-28T00:08:11.008Z,101828.77
2023-02-28T00:10:41.929Z,101821.04
2023-02-28T00:13:13.235Z,101822.52
2023-02-28T00:15:44.044Z,101829.30
2023-02-28T00:18:14.966Z,101834.09
2023-02-28T00:20:46.035Z,101837.59
2023-02-28T00:23:16.761Z,101846.31
2023-02-28T00:25:47.739Z,101855.30
2023-02-28T00:28:18.660Z,101864.30
2023-02-28T00:30:49.667Z,101875.27
2023-02-28T00:33:20.671Z,101870.89
2023-02-28T00:35:51.616Z,101866.33
2023-02-28T00:38:22.482Z,101861.66
2023-02-28T00:40:53.262Z,101860.84
2023-02-28T00:43:23.988Z,101862.87
2023-02-28T00:45:54.837Z,101861.39
2023-02-28T00:48:25.829Z,101858.59
2023-02-28T00:50:56.531Z,101857.71
2023-02-28T00:53:27.338Z,101859.50
2023-02-28T00:55:58.284Z,101857.42
2023-02-28T00:58:28.981Z,101855.90
2023-02-28T01:00:59.810Z,101856.77
2023-02-28T01:03:30.881Z,101855.41
2023-02-28T01:06:01.860Z,101862.45
2023-02-28T01:08:32.809Z,101865.64
2023-02-28T01:11:10.774Z,101868.83
2023-02-28T01:13:41.594Z,101869.41
2023-02-28T01:16:12.428Z,101868.78
2023-02-28T01:18:43.314Z,101863.60
2023-02-28T01:21:14.817Z,101866.20
2023-02-28T01:23:45.900Z,101873.02
2023-02-28T01:26:17.593Z,101874.20
2023-02-28T01:28:48.534Z,101880.28
2023-02-28T01:31:19.489Z,101882.31
2023-02-28T01:33:50.520Z,101892.86
2023-02-28T01:36:21.836Z,101903.61
2023-02-28T01:38:52.899Z,101907.27
2023-02-28T01:41:25.058Z,101917.71
2023-02-28T01:43:58.139Z,101926.64
2023-02-28T01:46:29.134Z,101933.50
2023-02-28T01:49:01.721Z,101937.39
2023-02-28T01:51:33.850Z,101933.65
2023-02-28T01:54:05.940Z,101929.25
2023-02-28T01:56:37.406Z,101934.29
2023-02-28T01:59:08.312Z,101932.33
2023-02-28T02:01:39.180Z,101929.76
2023-02-28T02:04:09.914Z,101930.11
2023-02-28T02:06:41.897Z,101934.40
2023-02-28T02:09:12.847Z,101930.98
2023-02-28T02:11:44.386Z,101934.80
2023-02-28T02:14:18.263Z,101931.56
2023-02-28T02:16:53.393Z,101924.50
2023-02-28T02:19:39.818Z,101925.87
2023-02-28T02:22:20.877Z,101922.09
2023-02-28T02:25:14.195Z,101923.24
2023-02-28T02:28:02.174Z,101923.98
2023-02-28T02:30:47.883Z,101923.67
2023-02-28T02:33:40.941Z,101933.34
2023-02-28T02:36:12.578Z,101940.88
2023-02-28T02:38:44.878Z,101942.45
2023-02-28T02:41:16.936Z,101950.35
2023-02-28T02:43:49.255Z,101942.23
2023-02-28T02:46:21.779Z,101935.80
2023-02-28T02:48:52.777Z,101925.23
2023-02-28T02:51:23.618Z,101920.91
2023-02-28T02:53:55.250Z,101918.58
2023-02-28T02:56:27.412Z,101913.87
2023-02-28T02:58:59.821Z,101917.50
2023-02-28T03:01:30.962Z,101914.36
2023-02-28T03:04:03.582Z,101907.50
2023-02-28T03:06:34.489Z,101898.30
2023-02-28T03:09:05.640Z,101900.23
2023-02-28T03:11:36.670Z,101904.13
2023-02-28T03:14:13.369Z,101911.78
2023-02-28T03:16:48.568Z,101919.02
2023-02-28T03:19:24.073Z,101924.41
2023-02-28T03:21:57.349Z,101919.97
2023-02-28T03:24:29.358Z,101927.86
2023-02-28T03:27:02.090Z,101936.15
2023-02-28T03:29:34.741Z,101937.98
2023-02-28T03:32:06.964Z,101937.30
2023-02-28T03:34:38.881Z,101929.88
2023-02-28T03:37:10.481Z,101935.42
2023-02-28T03:39:42.547Z,101939.60
2023-02-28T03:42:13.858Z,101944.15
2023-02-28T03:44:45.158Z,101949.71
2023-02-28T03:47:16.562Z,101949.06
2023-02-28T03:49:49.036Z,101952.86
2023-02-28T03:52:20.171Z,101954.80
2023-02-28T03:54:52.779Z,101965.43
2023-02-28T03:57:25.574Z,101969.45
2023-02-28T03:59:57.008Z,101974.33
2023-02-28T04:02:27.955Z,101978.39
2023-02-28T04:05:00.760Z,101974.31
2023-02-28T04:07:32.920Z,101967.23
2023-02-28T04:10:03.949Z,101962.90
2023-02-28T04:12:34.888Z,101974.94
2023-02-28T04:15:06.695Z,101982.52
2023-02-28T04:17:37.612Z,101977.55
2023-02-28T04:20:10.817Z,101980.66
2023-02-28T04:22:41.664Z,101981.00
2023-02-28T04:25:12.667Z,101992.52
2023-02-28T04:27:45.569Z,102003.66
2023-02-28T04:30:16.742Z,102008.27
2023-02-28T04:32:47.799Z,102007.73
2023-02-28T04:35:18.687Z,102008.17
2023-02-28T04:37:49.682Z,102005.57
2023-02-28T04:40:20.638Z,101999.95
2023-02-28T04:42:51.744Z,102002.63
2023-02-28T04:45:22.681Z,102006.03
2023-02-28T04:47:54.706Z,102005.27
2023-02-28T04:50:25.919Z,102002.67
2023-02-28T04:52:57.074Z,102002.23
2023-02-28T04:55:27.954Z,102000.74
2023-02-28T04:57:58.990Z,102002.42
2023-02-28T05:00:32.193Z,101998.08
2023-02-28T05:03:04.754Z,102000.91
2023-02-28T05:05:36.454Z,102006.86
2023-02-28T05:08:07.836Z,102013.56
2023-02-28T05:10:38.961Z,102012.54
2023-02-28T05:13:11.327Z,102014.48
2023-02-28T05:15:42.585Z,102016.12
2023-02-28T05:18:13.561Z,102016.79
2023-02-28T05:20:44.440Z,102015.20
2023-02-28T05:23:15.713Z,102023.05
2023-02-28T05:25:46.875Z,102025.13
2023-02-28T05:28:18.059Z,102026.90
2023-02-28T05:30:48.970Z,102027.88
2023-02-28T05:33:19.701Z,102031.11
2023-02-28T05:35:50.612Z,102029.77
2023-02-28T05:38:21.531Z,102025.77
2023-02-28T05:40:52.990Z,102027.33
2023-02-28T05:43:23.882Z,102032.75
2023-02-28T05:45:54.917Z,102034.27
2023-02-28T05:48:27.238Z,102038.63
2023-02-28T05:50:57.905Z,102042.94
2023-02-28T05:53:28.857Z,102041.15
2023-02-28T05:55:59.768Z,102039.11
2023-02-28T05:58:32.124Z,102038.46
2023-02-28T06:01:03.518Z,102041.67
2023-02-28T06:03:34.372Z,102044.27
2023-02-28T06:06:05.598Z,102047.95
2023-02-28T06:08:36.168Z,102062.52
2023-02-28T06:11:07.861Z,102068.45
2023-02-28T06:13:38.765Z,102070.25
2023-02-28T06:16:10.520Z,102067.61
2023-02-28T06:18:41.691Z,102071.11
2023-02-28T06:21:12.444Z,102072.90
2023-02-28T06:23:43.396Z,102078.41
2023-02-28T06:26:14.398Z,102086.11
2023-02-28T06:28:45.309Z,102087.83
2023-02-28T06:31:17.357Z,102086.18
2023-02-28T06:33:48.463Z,102088.29
2023-02-28T06:36:19.699Z,102095.95
2023-02-28T06:38:55.710Z,102101.92
2023-02-28T06:41:28.389Z,102096.42
2023-02-28T06:43:59.889Z,102089.45
2023-02-28T06:46:30.905Z,102086.70
2023-02-28T06:49:01.789Z,102087.77
2023-02-28T06:51:32.556Z,102097.86
2023-02-28T06:54:03.376Z,102106.70
2023-02-28T06:56:34.227Z,102108.59
2023-02-28T06:59:05.236Z,102112.83
2023-02-28T07:01:36.063Z,102112.83
2023-02-28T07:04:07.225Z,102117.48
2023-02-28T07:06:38.196Z,102121.12
2023-02-28T07:09:09.344Z,102113.55
2023-02-28T07:11:40.099Z,102111.39
2023-02-28T07:14:11.090Z,102103.02
2023-02-28T07:16:41.897Z,102093.34
2023-02-28T07:19:12.632Z,102080.48
2023-02-28T07:21:43.528Z,102075.59
2023-02-28T07:24:16.818Z,102074.26
2023-02-28T07:26:47.828Z,102080.71
2023-02-28T07:29:18.771Z,102082.70
2023-02-28T07:31:51.552Z,102082.90
2023-02-28T07:34:22.534Z,102081.34
2023-02-28T07:36:54.701Z,102081.11
2023-02-28T07:39:25.933Z,102077.89
2023-02-28T07:41:57.120Z,102074.10
2023-02-28T07:44:28.081Z,102075.52
2023-02-28T07:46:59.029Z,102072.84
2023-02-28T07:49:30.069Z,102067.72
2023-02-28T07:52:01.025Z,102057.52
2023-02-28T07:54:31.957Z,102051.85
2023-02-28T07:57:03.130Z,102051.11
2023-02-28T07:59:34.125Z,102050.17
2023-02-28T08:02:04.950Z,102052.38
2023-02-28T08:04:36.470Z,102057.21
2023-02-28T08:07:07.367Z,102053.02
2023-02-28T08:09:38.351Z,102050.55
2023-02-28T08:12:09.710Z,102051.94
2023-02-28T08:14:40.781Z,102058.29
2023-02-28T08:17:11.752Z,102067.23
2023-02-28T08:19:42.492Z,102068.94
2023-02-28T08:22:13.324Z,102078.30
2023-02-28T08:24:44.826Z,102080.76
2023-02-28T08:27:15.720Z,102086.95
2023-02-28T08:29:46.505Z,102090.39
2023-02-28T08:32:28.893Z,102093.27
2023-02-28T08:35:00.898Z,102102.88
2023-02-28T08:37:31.540Z,102105.16
2023-02-28T08:40:02.508Z,102103.46
2023-02-28T08:42:33.326Z,102105.90
2023-02-28T08:45:04.115Z,102106.66
2023-02-28T08:47:34.860Z,102102.91
2023-02-28T08:50:06.714Z,102103.35
2023-02-28T08:52:37.676Z,102107.92
2023-02-28T08:55:10.532Z,102098.84
2023-02-28T08:57:41.615Z,102104.84
2023-02-28T09:00:14.831Z,102096.67
2023-02-28T09:02:45.651Z,102099.95
2023-02-28T09:05:16.500Z,102097.92
2023-02-28T09:07:47.524Z,102098.52
2023-02-28T09:10:19.420Z,102099.40
2023-02-28T09:12:50.305Z,102101.69
2023-02-28T09:15:21.444Z,102098.51
2023-02-28T09:17:52.376Z,102097.11
2023-02-28T09:20:23.179Z,102097.84
2023-02-28T09:22:54.007Z,102094.68
2023-02-28T09:25:25.724Z,102096.32
2023-02-28T09:27:57.162Z,102097.70
2023-02-28T09:30:28.600Z,102097.00
2023-02-28T09:32:59.616Z,102099.91
2023-02-28T09:35:31.776Z,102098.16
2023-02-28T09:38:03.850Z,102098.32
2023-02-28T09:40:35.540Z,102100.52
2023-02-28T09:43:06.797Z,102100.90
2023-02-28T09:45:38.255Z,102100.91
2023-02-28T09:48:12.601Z,102096.38
2023-02-28T09:50:44.956Z,102094.95
2023-02-28T09:53:18.022Z,102091.64
2023-02-28T09:55:49.627Z,102086.36
2023-02-28T09:58:21.505Z,102082.52
2023-02-28T10:00:54.439Z,102081.63
2023-02-28T10:03:29.608Z,102082.07
2023-02-28T10:06:04.047Z,102088.95
2023-02-28T10:08:37.195Z,102090.38
2023-02-28T10:11:10.233Z,102093.48
2023-02-28T10:13:42.214Z,102097.77
2023-02-28T10:16:14.193Z,102095.54
2023-02-28T10:18:46.420Z,102091.58
2023-02-28T10:21:20.729Z,102086.77
2023-02-28T10:23:52.169Z,102085.95
2023-02-28T10:26:24.968Z,102086.11
2023-02-28T10:28:56.196Z,102086.59
2023-02-28T10:31:27.681Z,102087.55
2023-02-28T10:34:22.602Z,102084.89
2023-02-28T10:36:53.648Z,102081.77
2023-02-28T10:39:42.553Z,102077.27
2023-02-28T10:42:26.581Z,102068.46
2023-02-28T10:45:09.276Z,102059.90
2023-02-28T10:47:40.763Z,102056.64
2023-02-28T10:50:14.581Z,102053.39
2023-02-28T10:52:45.808Z,102052.05
2023-02-28T10:55:19.252Z,102046.19
2023-02-28T10:57:50.358Z,102042.09
2023-02-28T11:00:24.195Z,102038.84
2023-02-28T11:02:55.957Z,102033.64
2023-02-28T11:05:29.178Z,102031.36
2023-02-28T11:08:02.359Z,102031.88
2023-02-28T11:10:36.198Z,102027.83
2023-02-28T11:13:08.309Z,102022.45
2023-02-28T11:15:40.230Z,102022.98
2023-02-28T11:18:20.043Z,102022.25
2023-02-28T11:20:52.185Z,102026.92
2023-02-28T11:23:23.705Z,102031.40
2023-02-28T11:25:56.087Z,102025.48
2023-02-28T11:28:29.476Z,102030.34
2023-02-28T11:31:05.940Z,102027.96
2023-02-28T11:33:42.775Z,102018.13
2023-02-28T11:36:15.300Z,102021.11
2023-02-28T11:38:46.880Z,102013.71
2023-02-28T11:41:29.722Z,102009.86
2023-02-28T11:44:06.053Z,102009.91
2023-02-28T11:46:39.640Z,102010.34
2023-02-28T11:49:16.601Z,102010.02
2023-02-28T11:51:50.195Z,102011.14
2023-02-28T12:00:34.183Z,102005.27
2023-02-28T12:03:09.657Z,102004.23
2023-02-28T12:05:44.980Z,102006.75
2023-02-28T12:08:21.561Z,102009.27
2023-02-28T12:10:55.400Z,102009.52
2023-02-28T12:13:29.332Z,102006.75
2023-02-28T12:16:22.667Z,102008.07
2023-02-28T12:19:06.083Z,102007.93
2023-02-28T12:21:39.643Z,102003.35
2023-02-28T12:24:20.712Z,101999.02
2023-02-28T12:26:51.605Z,101993.14
2023-02-28T12:29:25.253Z,101991.02
2023-02-28T12:31:57.588Z,101995.15
2023-02-28T12:34:30.192Z,101997.38
2023-02-28T12:37:01.593Z,101997.41
2023-02-28T12:39:41.744Z,101996.84
2023-02-28T12:42:21.865Z,101996.58
2023-02-28T12:44:54.230Z,101995.12
2023-02-28T12:47:25.293Z,101993.84
2023-02-28T12:49:57.783Z,101993.81
2023-02-28T12:52:30.969Z,101993.86
2023-02-28T12:55:03.253Z,101998.55
2023-02-28T12:57:38.024Z,101999.75
2023-02-28T13:00:13.307Z,101999.84
2023-02-28T13:02:51.468Z,101998.56
2023-02-28T13:05:33.779Z,102000.97
2023-02-28T13:08:10.004Z,101998.70
2023-02-28T13:10:44.548Z,101993.47
2023-02-28T13:13:19.355Z,101995.33
2023-02-28T13:16:04.292Z,101989.05
2023-02-28T13:18:40.811Z,101984.80
2023-02-28T13:21:12.298Z,101992.49
2023-02-28T13:23:59.589Z,101992.62
2023-02-28T13:26:56.292Z,101989.91
2023-02-28T13:29:31.676Z,101989.98
2023-02-28T13:32:19.603Z,101987.02
2023-02-28T13:35:11.569Z,101982.20
2023-02-28T13:37:45.899Z,101973.75
2023-02-28T13:40:38.324Z,101972.27
2023-02-28T13:43:11.514Z,101967.36
2023-02-28T13:45:42.385Z,101959.46
2023-02-28T13:48:20.408Z,101964.10
2023-02-28T13:50:51.316Z,101968.88
2023-02-28T13:53:44.931Z,101968.78
2023-02-28T13:56:28.173Z,101970.31
2023-02-28T13:59:01.178Z,101964.80
2023-02-28T14:01:37.422Z,101958.71
2023-02-28T14:04:17.237Z,101959.05
2023-02-28T14:06:50.823Z,101956.39
2023-02-28T14:09:24.899Z,101957.08
2023-02-28T14:11:55.874Z,101957.39
2023-02-28T14:14:43.016Z,101961.09
2023-02-28T14:17:16.668Z,101957.73
2023-02-28T14:19:51.121Z,101953.91
2023-02-28T14:22:24.483Z,101943.30
2023-02-28T14:25:10.419Z,101943.20
2023-02-28T14:27:43.970Z,101939.48
2023-02-28T14:30:22.516Z,101941.88
2023-02-28T14:32:54.144Z,101932.09
2023-02-28T14:35:29.978Z,101929.98
2023-02-28T14:38:00.863Z,101929.08
2023-02-28T14:40:32.503Z,101928.75
2023-02-28T14:43:04.089Z,101925.24
2023-02-28T14:45:35.375Z,101926.91
2023-02-28T14:48:06.579Z,101935.96
2023-02-28T14:50:38.317Z,101933.02
2023-02-28T14:53:12.607Z,101934.77
2023-02-28T14:55:45.995Z,101940.91
2023-02-28T14:58:22.615Z,101938.05
2023-02-28T15:00:55.023Z,101942.55
2023-02-28T15:03:26.597Z,101943.87
2023-02-28T15:05:58.212Z,101945.98
2023-02-28T15:08:30.423Z,101944.70
2023-02-28T15:11:01.632Z,101953.67
2023-02-28T15:13:41.177Z,101955.25
2023-02-28T15:16:12.866Z,101959.17
2023-02-28T15:18:49.194Z,101962.23
2023-02-28T15:21:20.734Z,101958.74
2023-02-28T15:23:53.327Z,101957.05
2023-02-28T15:26:25.090Z,101957.89
2023-02-28T15:28:57.547Z,101958.34
2023-02-28T15:31:36.929Z,101957.67
2023-02-28T15:34:18.746Z,101957.87
2023-02-28T15:36:49.809Z,101964.13
2023-02-28T15:39:22.748Z,101970.02
2023-02-28T15:41:53.662Z,101974.41
2023-02-28T15:44:30.978Z,101978.63
2023-02-28T15:47:03.681Z,101976.05
2023-02-28T15:49:42.666Z,101977.09
2023-02-28T15:52:17.929Z,101975.15
2023-02-28T15:54:48.854Z,101973.09
2023-02-28T15:57:20.567Z,101968.55
2023-02-28T15:59:53.507Z,101977.02
2023-02-28T16:02:25.051Z,101983.10
2023-02-28T16:05:03.339Z,101974.23
2023-02-28T16:07:34.283Z,101970.93
2023-02-28T16:10:05.244Z,101972.02
2023-02-28T16:12:36.886Z,101978.31
2023-02-28T16:15:09.987Z,101980.71
2023-02-28T16:17:41.071Z,101982.33
2023-02-28T16:20:16.406Z,101989.55
2023-02-28T16:22:47.304Z,101990.55
2023-02-28T16:25:18.583Z,101988.05
2023-02-28T16:27:51.139Z,101993.70
2023-02-28T16:30:23.349Z,101998.14
2023-02-28T16:32:54.455Z,102004.23
2023-02-28T16:35:25.857Z,102007.86
2023-02-28T16:37:56.689Z,102009.70
2023-02-28T16:40:29.695Z,102015.85
2023-02-28T16:43:01.277Z,102012.55
2023-02-28T16:45:32.159Z,102012.63
2023-02-28T16:48:02.972Z,102017.20
2023-02-28T16:50:34.536Z,102024.25
2023-02-28T16:53:05.422Z,102025.41
2023-02-28T16:55:36.769Z,102027.67
2023-02-28T16:58:07.565Z,102026.45
2023-02-28T17:00:38.278Z,102019.32
2023-02-28T17:03:11.714Z,102026.02
2023-02-28T17:05:42.743Z,102030.49
2023-02-28T17:08:13.592Z,102034.52
2023-02-28T17:10:44.522Z,102030.28
2023-02-28T17:13:15.604Z,102026.21
2023-02-28T17:15:47.571Z,102028.23
2023-02-28T17:18:20.958Z,102027.94
2023-02-28T17:20:51.621Z,102025.53
2023-02-28T17:23:22.308Z,102027.67
2023-02-28T17:25:57.925Z,102022.05
2023-02-28T17:28:29.104Z,102018.52
2023-02-28T17:30:59.882Z,102024.45
2023-02-28T17:33:30.777Z,102026.63
2023-02-28T17:36:01.513Z,102028.73
2023-02-28T17:38:32.214Z,102026.13
2023-02-28T17:41:03.680Z,102029.23
2023-02-28T17:43:34.621Z,102026.16
2023-02-28T17:46:06.274Z,102029.81
2023-02-28T17:48:37.509Z,102034.85
2023-02-28T17:51:08.521Z,102035.06
2023-02-28T17:53:39.349Z,102037.46
2023-02-28T17:56:12.962Z,102035.58
2023-02-28T17:58:43.735Z,102037.56
2023-02-28T18:01:14.464Z,102033.67
2023-02-28T18:03:45.187Z,102028.72
2023-02-28T18:06:17.613Z,102021.27
2023-02-28T18:08:48.567Z,102021.60
2023-02-28T18:11:19.457Z,102019.48
2023-02-28T18:13:51.378Z,102021.20
2023-02-28T18:16:23.330Z,102021.94
2023-02-28T18:18:54.278Z,102019.25
2023-02-28T18:21:25.104Z,102023.36
2023-02-28T18:23:55.875Z,102026.09
2023-02-28T18:26:26.753Z,102032.30
2023-02-28T18:28:57.501Z,102035.23
2023-02-28T18:31:28.322Z,102033.66
2023-02-28T18:33:59.171Z,102035.77
2023-02-28T18:36:30.373Z,102034.77
2023-02-28T18:39:02.704Z,102038.69
2023-02-28T18:41:33.627Z,102046.70
2023-02-28T18:44:13.710Z,102052.60
2023-02-28T18:46:49.748Z,102051.29
2023-02-28T18:49:20.736Z,102051.40
2023-02-28T18:51:51.660Z,102051.16
2023-02-28T18:54:22.550Z,102052.84
2023-02-28T18:56:54.958Z,102055.31
2023-02-28T18:59:25.640Z,102048.72
2023-02-28T19:01:56.416Z,102053.66
2023-02-28T19:04:27.295Z,102051.83
2023-02-28T19:06:57.948Z,102054.41
2023-02-28T19:09:31.767Z,102048.19
2023-02-28T19:12:02.780Z,102042.92
2023-02-28T19:14:33.670Z,102037.34
2023-02-28T19:17:04.485Z,102035.78
2023-02-28T19:19:35.263Z,102034.05
2023-02-28T19:22:06.108Z,102038.14
2023-02-28T19:24:36.979Z,102035.15
2023-02-28T19:27:07.890Z,102024.33
2023-02-28T19:29:38.729Z,102020.88
2023-02-28T19:32:09.552Z,102015.30
2023-02-28T19:34:40.607Z,102016.62
2023-02-28T19:37:11.432Z,102015.62
2023-02-28T19:39:44.417Z,102014.92
2023-02-28T19:42:15.926Z,102009.21
2023-02-28T19:44:46.707Z,102008.98
2023-02-28T19:47:17.528Z,102008.70
2023-02-28T19:49:48.326Z,102008.51
2023-02-28T19:52:19.052Z,102009.27
2023-02-28T19:54:49.955Z,102007.45
2023-02-28T19:57:20.784Z,102001.17
2023-02-28T19:59:52.079Z,101999.13
2023-02-28T20:02:23.518Z,102000.20
2023-02-28T20:04:58.715Z,102000.25
2023-02-28T20:07:32.182Z,102002.68
2023-02-28T20:10:03.132Z,102005.16
2023-02-28T20:12:33.956Z,102005.75
2023-02-28T20:15:05.052Z,102003.44
2023-02-28T20:17:35.915Z,102004.61
2023-02-28T20:20:11.621Z,102002.45
2023-02-28T20:22:42.456Z,102000.52
2023-02-28T20:25:13.219Z,102006.63
2023-02-28T20:27:44.270Z,102007.20
2023-02-28T20:30:15.501Z,102005.05
2023-02-28T20:32:46.330Z,102000.66
2023-02-28T20:35:17.422Z,101998.63
2023-02-28T20:37:48.311Z,101991.81
2023-02-28T20:40:19.494Z,101994.38
2023-02-28T20:42:50.272Z,101991.36
2023-02-28T20:45:21.223Z,101988.77
2023-02-28T20:47:52.158Z,101988.44
2023-02-28T20:50:23.028Z,101986.35
2023-02-28T20:52:54.015Z,101983.91
2023-02-28T20:55:25.050Z,101986.33
2023-02-28T20:57:56.519Z,101987.89
2023-02-28T21:00:27.416Z,101988.68
2023-02-28T21:02:58.989Z,101979.45
2023-02-28T21:05:30.213Z,101973.86
2023-02-28T21:08:01.139Z,101964.66
2023-02-28T21:10:32.482Z,101963.84
2023-02-28T21:13:03.426Z,101964.48
2023-02-28T21:15:37.918Z,101962.64
2023-02-28T21:18:26.490Z,101960.70
2023-02-28T21:20:57.235Z,101959.71
2023-02-28T21:23:28.039Z,101958.89
2023-02-28T21:26:00.579Z,101954.57
2023-02-28T21:28:31.500Z,101954.83
2023-02-28T21:31:05.743Z,101956.85
2023-02-28T21:33:36.550Z,101956.55
2023-02-28T21:36:08.407Z,101953.27
2023-02-28T21:38:39.591Z,101951.83
2023-02-28T21:41:10.931Z,101955.73
2023-02-28T21:43:42.122Z,101953.77
2023-02-28T21:46:13.838Z,101948.02
2023-02-28T21:48:44.964Z,101950.08
2023-02-28T21:51:16.324Z,101945.90
2023-02-28T21:53:48.409Z,101946.77
2023-02-28T21:56:19.837Z,101941.78
2023-02-28T21:58:50.599Z,101941.97
2023-02-28T22:01:21.904Z,101943.28
2023-02-28T22:03:52.836Z,101946.90
2023-02-28T22:06:24.375Z,101950.64
2023-02-28T22:08:57.123Z,101946.09
2023-02-28T22:11:28.037Z,101953.75
2023-02-28T22:13:59.116Z,101954.77
2023-02-28T22:16:33.124Z,101955.59
2023-02-28T22:19:07.684Z,101964.17
2023-02-28T22:21:39.558Z,101965.18
2023-02-28T22:24:10.454Z,101967.27
2023-02-28T22:26:41.346Z,101968.35
2023-02-28T22:29:12.262Z,101965.66
2023-02-28T22:31:43.212Z,101967.00
2023-02-28T22:34:14.566Z,101971.52
2023-02-28T22:36:45.478Z,101967.11
2023-02-28T22:39:17.189Z,101964.84
2023-02-28T22:41:48.048Z,101967.73
2023-02-28T22:44:18.867Z,101970.13
2023-02-28T22:46:52.023Z,101973.45
2023-02-28T22:49:22.991Z,101975.86
2023-02-28T22:51:53.947Z,101968.64
2023-02-28T22:54:24.802Z,101972.38
2023-02-28T22:56:55.700Z,101975.63
2023-02-28T22:59:26.517Z,101974.20
2023-02-28T23:01:57.317Z,101966.50
2023-02-28T23:04:28.246Z,101969.26
2023-02-28T23:06:59.230Z,101972.27
2023-02-28T23:09:30.158Z,101960.23
2023-02-28T23:12:00.941Z,101948.23
2023-02-28T23:14:31.780Z,101955.83
2023-02-28T23:17:02.563Z,101963.11
2023-02-28T23:19:33.458Z,101968.98
2023-02-28T23:22:05.723Z,101965.32
2023-02-28T23:24:36.642Z,101965.36
2023-02-28T23:27:07.534Z,101962.80
2023-02-28T23:29:38.350Z,101955.45
2023-02-28T23:32:09.690Z,101955.40
2023-02-28T23:34:40.745Z,101953.90
2023-02-28T23:37:11.525Z,101954.91
2023-02-28T23:39:42.881Z,101953.09
2023-02-28T23:42:14.367Z,101950.50
2023-02-28T23:44:45.269Z,101954.00
2023-02-28T23:47:16.967Z,101951.61
2023-02-28T23:49:48.446Z,101953.60
2023-02-28T23:52:19.496Z,101951.89
2023-02-28T23:54:50.153Z,101951.85
2023-02-28T23:57:20.976Z,101947.61
2023-02-28T23:59:51.899Z,101946.23
